Midland, TX

1:03 PM CDT on July 27, 2016 (GMT -0500)
Midland

Weather History for KMDD - June, 2013

Change the Weather History Date:

Thursday, June 27, 2013

  Actual Average (KMAF) Record (KMAF)
Temperature  
Mean Temperature 91 °F 82 °F  
Max Temperature 105 °F 94 °F 116 °F (1994)
Min Temperature 77 °F 69 °F 59 °F (2006)
Cooling Degree Days 26 17  
Month to date cooling degree days 411  
Year to date cooling degree days 800  
Since 1 June cooling degree days 411  
Growing Degree Days 41 (Base 50)    
Moisture  
Dew Point 54 °F    
Average Humidity 33    
Maximum Humidity 64    
Minimum Humidity 11    
Precipitation  
Precipitation 0.00 in 0.05 in 0.71 in (1997)
Month to date precipitation 1.62  
Year to date precipitation 5.88  
Sea Level Pressure  
Sea Level Pressure 30.01 in    
Wind  
Wind Speed 11 mph (SSE)    
Max Wind Speed 16 mph    
Max Gust Speed 22 mph    
Visibility 10 miles    
Events Rain    
T = Trace of Precipitation, MM = Missing Value Source: NWS Daily Summary

Daily Weather History Graph

Daily Weather History Graph

Search for Another Location

Airport or City:

Trip Planner

Search our weather history database for the weather conditions in past years. The results will help you decide how hot, cold, wet, or windy it might be!

Date:

Astronomy

Jun. 27, 2013 Rise Set
Actual Time 6:44 AM CDT 8:58 PM CDT
Civil Twilight 6:16 AM CDT 9:26 PM CDT
Nautical Twilight 5:41 AM CDT 10:01 PM CDT
Astronomical Twilight 5:04 AM CDT 10:38 PM CDT
Moon No Moon Rise 11:29 AM CDT
Length of Visible Light 15h 10m
Length of Day
14h 14m
Waning Gibbous, 76% of the Moon is Illuminated
Jun 27
Waning Gibbous
Jun 29
Last Quarter
Jul 8
New
Jul 15
First Quarter
Jul 22
Full

Hourly Weather History & Observations

Time (CDT) Temp. Heat Index Dew Point Humidity Pressure Visibility Wind Dir Wind Speed Gust Speed Precip Events Conditions
12:15 AM 88.2 °F 89.3 °F 63.5 °F 44% 29.99 in 10.0 mi South 10.4 mph - N/A   Clear
12:35 AM 87.3 °F 88.0 °F 63.0 °F 44% 29.99 in 10.0 mi SSE 13.8 mph - N/A   Clear
12:55 AM 86.5 °F 87.0 °F 62.4 °F 44% 29.99 in 10.0 mi South 13.8 mph 18.4 mph N/A   Clear
1:15 AM 86.0 °F 86.6 °F 62.6 °F 45% 29.99 in 10.0 mi South 12.7 mph 17.3 mph N/A   Clear
1:35 AM 85.1 °F 85.9 °F 63.0 °F 47% 29.99 in 10.0 mi South 12.7 mph - N/A   Clear
1:55 AM 84.2 °F 85.4 °F 63.5 °F 50% 29.99 in 10.0 mi South 10.4 mph - N/A   Clear
2:15 AM 83.7 °F 84.9 °F 63.9 °F 51% 29.99 in 10.0 mi South 9.2 mph - N/A   Clear
2:35 AM 83.3 °F 84.6 °F 64.2 °F 52% 29.99 in 10.0 mi South 8.1 mph 11.5 mph N/A   Clear
2:55 AM 82.8 °F 84.3 °F 64.4 °F 54% 29.99 in 10.0 mi South 9.2 mph - N/A   Clear
3:15 AM 82.4 °F 83.9 °F 64.4 °F 54% 29.99 in 10.0 mi South 9.2 mph - N/A   Clear
3:35 AM 82.4 °F 83.9 °F 64.4 °F 54% 29.99 in 10.0 mi South 9.2 mph - N/A   Clear
3:55 AM 81.9 °F 83.4 °F 64.0 °F 55% 29.99 in 10.0 mi South 8.1 mph - N/A   Clear
4:15 AM 81.5 °F 82.9 °F 63.9 °F 55% 29.99 in 10.0 mi South 8.1 mph - N/A   Clear
4:35 AM 81.1 °F 82.5 °F 63.5 °F 55% 29.99 in 10.0 mi South 9.2 mph - N/A   Clear
4:55 AM 81.0 °F 82.3 °F 63.5 °F 55% 29.99 in 10.0 mi South 8.1 mph - N/A   Clear
5:15 AM 80.2 °F 81.8 °F 63.5 °F 57% 30.00 in 10.0 mi South 5.8 mph - N/A   Clear
5:35 AM 79.9 °F - 63.1 °F 56% 30.00 in 10.0 mi South 6.9 mph - N/A   Clear
5:55 AM 79.9 °F - 63.0 °F 56% 30.00 in 10.0 mi South 6.9 mph - N/A   Clear
6:15 AM 79.7 °F - 63.0 °F 56% 30.00 in 10.0 mi South 8.1 mph - N/A   Clear
6:35 AM 78.6 °F - 63.0 °F 59% 30.01 in 10.0 mi SSE 6.9 mph - N/A   Clear
6:55 AM 78.3 °F - 62.8 °F 59% 30.01 in 10.0 mi SSE 6.9 mph - N/A   Clear
7:15 AM 78.4 °F - 62.8 °F 58% 30.02 in 10.0 mi SSE 9.2 mph - N/A   Clear
7:35 AM 77.9 °F - 62.6 °F 59% 30.02 in 10.0 mi SSE 10.4 mph - N/A   Clear
7:55 AM 78.4 °F - 62.6 °F 58% 30.02 in 10.0 mi SSE 11.5 mph - N/A   Clear
8:15 AM 79.0 °F - 62.6 °F 57% 30.03 in 10.0 mi South 9.2 mph - N/A   Clear
8:35 AM 78.8 °F - 65.7 °F 64% 30.03 in 7.0 mi SSE 12.7 mph 18.4 mph N/A Rain Light Rain
8:55 AM 81.1 °F 82.8 °F 64.6 °F 57% 30.04 in 10.0 mi South 10.4 mph - N/A   Scattered Clouds
9:15 AM 83.1 °F 84.6 °F 64.2 °F 53% 30.06 in 10.0 mi SSE 8.1 mph - N/A   Clear
9:35 AM 84.7 °F 86.1 °F 64.2 °F 50% 30.06 in 10.0 mi South 9.2 mph - N/A   Clear
9:55 AM 87.4 °F 88.5 °F 63.7 °F 45% 30.05 in 10.0 mi SSE 13.8 mph - N/A   Clear
10:15 AM 89.1 °F 89.6 °F 62.6 °F 41% 30.04 in 10.0 mi SSE 16.1 mph 20.7 mph N/A   Clear
10:35 AM 90.3 °F 90.5 °F 61.3 °F 38% 30.04 in 10.0 mi South 13.8 mph - N/A   Clear
10:55 AM 92.3 °F 92.7 °F 61.7 °F 36% 30.05 in 10.0 mi SSE 12.7 mph - N/A   Clear
11:15 AM 93.0 °F 92.7 °F 60.1 °F 33% 30.05 in 10.0 mi SSE 12.7 mph - N/A   Clear
11:35 AM 94.6 °F 94.3 °F 59.9 °F 31% 30.05 in 10.0 mi SSE 11.5 mph - N/A   Clear
11:55 AM 96.1 °F 95.6 °F 59.4 °F 29% 30.04 in 10.0 mi SSE 11.5 mph - N/A   Clear
12:15 PM 97.7 °F 96.7 °F 57.2 °F 26% 30.04 in 10.0 mi SE 12.7 mph 19.6 mph N/A   Clear
12:35 PM 98.6 °F 97.2 °F 56.3 °F 24% 30.03 in 10.0 mi South 11.5 mph 16.1 mph N/A   Clear
12:55 PM 100.0 °F 97.9 °F 53.6 °F 21% 30.03 in 10.0 mi SSE 10.4 mph 16.1 mph N/A   Clear
1:15 PM 101.5 °F - 49.1 °F 17% 30.03 in 10.0 mi SE 12.7 mph 16.1 mph N/A   Clear
1:35 PM 102.4 °F - 47.1 °F 15% 30.03 in 10.0 mi SSE 10.4 mph 17.3 mph N/A   Clear
1:55 PM 103.1 °F - 45.9 °F 14% 30.03 in 10.0 mi SSE 10.4 mph 21.9 mph N/A   Clear
2:15 PM 103.5 °F - 46.2 °F 14% 30.02 in 10.0 mi SE 11.5 mph - N/A   Clear
2:35 PM 104.2 °F - 45.7 °F 14% 30.02 in 10.0 mi SE 12.7 mph 19.6 mph N/A   Clear
2:55 PM 104.2 °F - 44.2 °F 13% 30.01 in 10.0 mi South 11.5 mph 17.3 mph N/A   Clear
3:15 PM 104.7 °F - 41.5 °F 12% 30.01 in 10.0 mi ESE 13.8 mph 18.4 mph N/A   Clear
3:35 PM 104.5 °F - 43.2 °F 12% 30.01 in 10.0 mi SE 11.5 mph 15.0 mph N/A   Clear
3:55 PM 105.1 °F - 42.1 °F 12% 30.00 in 10.0 mi SE 13.8 mph - N/A   Clear
4:15 PM 105.4 °F - 41.4 °F 11% 30.00 in 10.0 mi SE 5.8 mph 13.8 mph N/A   Clear
4:35 PM 105.4 °F - 41.4 °F 11% 30.00 in 10.0 mi SE 15.0 mph 21.9 mph N/A   Clear
4:55 PM 104.5 °F - 42.6 °F 12% 30.00 in 10.0 mi SE 10.4 mph 21.9 mph N/A   Clear
5:15 PM 104.5 °F - 43.5 °F 13% 29.99 in 10.0 mi South 11.5 mph 19.6 mph N/A   Clear
5:35 PM 104.9 °F - 40.3 °F 11% 29.99 in 10.0 mi ESE 12.7 mph - N/A   Clear
5:55 PM 103.6 °F - 43.2 °F 13% 29.99 in 10.0 mi ESE 15.0 mph 19.6 mph N/A   Clear
6:15 PM 103.5 °F - 43.7 °F 13% 29.98 in 10.0 mi SE 12.7 mph 20.7 mph N/A   Clear
6:35 PM 102.6 °F - 45.0 °F 14% 29.98 in 10.0 mi SE 13.8 mph - N/A   Clear
6:55 PM 102.7 °F - 45.1 °F 14% 29.98 in 10.0 mi SE 11.5 mph 17.3 mph N/A   Clear
7:15 PM 101.7 °F - 45.0 °F 15% 29.99 in 10.0 mi SSE 6.9 mph - N/A   Clear
7:35 PM 101.3 °F - 43.9 °F 14% 29.99 in 10.0 mi SE 11.5 mph - N/A   Clear
7:55 PM 100.4 °F - 44.2 °F 15% 29.99 in 10.0 mi SSE 12.7 mph - N/A   Clear
8:15 PM 99.5 °F - 43.7 °F 15% 29.99 in 10.0 mi SSE 10.4 mph - N/A   Clear
8:35 PM 98.6 °F - 44.2 °F 16% 29.99 in 10.0 mi South 8.1 mph - N/A   Clear
8:55 PM 97.7 °F - 45.1 °F 17% 29.99 in 10.0 mi SSE 11.5 mph - N/A   Clear
9:15 PM 96.4 °F - 45.3 °F 17% 30.00 in 10.0 mi South 6.9 mph - N/A   Clear
9:35 PM 95.0 °F - 45.9 °F 18% 30.00 in 10.0 mi South 8.1 mph - N/A   Clear
9:55 PM 94.1 °F - 46.4 °F 19% 30.01 in 10.0 mi South 8.1 mph - N/A   Clear
10:15 PM 92.8 °F - 46.9 °F 21% 30.02 in 10.0 mi South 8.1 mph - N/A   Clear
10:35 PM 92.3 °F - 47.3 °F 21% 30.03 in 10.0 mi South 8.1 mph - N/A   Clear
10:55 PM 91.4 °F - 46.9 °F 22% 30.04 in 10.0 mi South 8.1 mph - N/A   Clear
11:15 PM 90.5 °F - 46.8 °F 22% 30.06 in 10.0 mi South 8.1 mph - N/A   Clear
11:35 PM 89.6 °F - 46.6 °F 23% 30.06 in 10.0 mi South 9.2 mph - N/A   Clear
11:55 PM 88.9 °F - 46.9 °F 23% 30.06 in 10.0 mi South 10.4 mph - N/A   Clear